createdAt,value
2019-02-07T00:02:16.055Z,68.54
2019-02-07T00:04:47.730Z,68.67
2019-02-07T00:07:19.296Z,68.53
2019-02-07T00:09:50.999Z,68.36
2019-02-07T00:12:22.650Z,68.19
2019-02-07T00:14:54.289Z,68.28
2019-02-07T00:17:25.840Z,67.95
2019-02-07T00:19:57.645Z,67.95
2019-02-07T00:22:29.213Z,68.08
2019-02-07T00:25:01.010Z,67.84
2019-02-07T00:27:32.917Z,67.85
2019-02-07T00:30:05.249Z,67.74
2019-02-07T00:32:36.822Z,67.96
2019-02-07T00:35:09.250Z,67.74
2019-02-07T00:37:40.802Z,67.78
2019-02-07T00:40:14.617Z,67.88
2019-02-07T00:42:46.845Z,67.55
2019-02-07T00:45:18.426Z,67.64
2019-02-07T00:47:50.251Z,67.67
2019-02-07T00:50:21.938Z,67.65
2019-02-07T00:52:53.438Z,67.56
2019-02-07T00:55:25.870Z,67.52
2019-02-07T00:57:57.612Z,67.43
2019-02-07T01:00:29.275Z,67.31
2019-02-07T01:03:00.776Z,67.15
2019-02-07T01:05:32.466Z,67.35
2019-02-07T01:08:04.650Z,67.33
2019-02-07T01:10:53.943Z,67.43
2019-02-07T01:13:43.408Z,67.43
2019-02-07T01:16:14.930Z,67.36
2019-02-07T01:18:46.570Z,67.41
2019-02-07T01:21:18.269Z,67.30
2019-02-07T01:23:49.749Z,67.27
2019-02-07T01:26:21.788Z,67.13
2019-02-07T01:28:53.548Z,67.24
2019-02-07T01:31:25.322Z,67.28
2019-02-07T01:33:56.864Z,67.31
2019-02-07T01:36:28.617Z,67.27
2019-02-07T01:39:00.121Z,67.22
2019-02-07T01:41:31.837Z,67.05
2019-02-07T01:44:03.387Z,67.16
2019-02-07T01:46:34.854Z,67.19
2019-02-07T01:49:06.360Z,67.20
2019-02-07T01:51:38.132Z,67.14
2019-02-07T01:54:09.590Z,67.14
2019-02-07T01:56:41.115Z,67.31
2019-02-07T01:59:12.814Z,67.27
2019-02-07T02:01:44.398Z,67.52
2019-02-07T02:04:15.873Z,67.50
2019-02-07T02:06:47.674Z,67.52
2019-02-07T02:09:19.207Z,67.61
2019-02-07T02:11:50.783Z,67.64
2019-02-07T02:14:24.308Z,67.71
2019-02-07T02:16:55.901Z,67.69
2019-02-07T02:19:27.469Z,67.57
2019-02-07T02:21:59.101Z,67.46
2019-02-07T02:24:30.600Z,67.52
2019-02-07T02:27:02.158Z,67.51
2019-02-07T02:29:33.991Z,67.38
2019-02-07T02:32:05.778Z,67.36
2019-02-07T02:34:37.290Z,67.26
2019-02-07T02:37:08.984Z,67.26
2019-02-07T02:39:40.735Z,67.20
2019-02-07T02:42:12.443Z,67.12
2019-02-07T02:44:43.932Z,67.19
2019-02-07T02:47:15.613Z,67.17
2019-02-07T02:49:47.190Z,67.07
2019-02-07T02:52:18.733Z,67.04
2019-02-07T02:54:53.433Z,66.99
2019-02-07T02:57:27.843Z,67.05
2019-02-07T02:59:59.653Z,67.02
2019-02-07T03:02:51.560Z,67.01
2019-02-07T03:05:45.070Z,66.76
2019-02-07T03:08:34.197Z,66.84
2019-02-07T03:11:23.921Z,66.86
2019-02-07T03:14:13.449Z,66.90
2019-02-07T03:17:22.884Z,67.05
2019-02-07T03:20:13.388Z,67.12
2019-02-07T03:23:22.086Z,67.05
2019-02-07T03:26:12.724Z,67.09
2019-02-07T03:29:01.880Z,67.17
2019-02-07T03:31:51.265Z,67.29
2019-02-07T03:34:40.716Z,67.26
2019-02-07T03:37:22.193Z,67.17
2019-02-07T03:40:27.863Z,66.93
2019-02-07T03:43:18.371Z,66.83
2019-02-07T03:46:11.971Z,66.74
2019-02-07T03:48:59.586Z,66.70
2019-02-07T03:51:48.713Z,66.52
2019-02-07T03:54:37.678Z,66.57
2019-02-07T03:57:40.407Z,66.58
2019-02-07T04:00:38.462Z,66.54
2019-02-07T04:03:39.859Z,66.62
2019-02-07T04:06:39.499Z,66.77
2019-02-07T04:09:35.853Z,66.83
2019-02-07T04:12:29.733Z,66.83
2019-02-07T04:15:18.970Z,66.93
2019-02-07T04:18:17.117Z,66.91
2019-02-07T04:21:07.445Z,66.74
2019-02-07T04:23:48.481Z,66.79
2019-02-07T04:26:47.929Z,66.67
2019-02-07T04:29:44.719Z,66.66
2019-02-07T04:32:38.100Z,66.37
2019-02-07T04:35:37.669Z,66.62
2019-02-07T04:38:38.045Z,66.89
2019-02-07T04:41:31.492Z,66.67
2019-02-07T04:44:20.449Z,66.47
2019-02-07T04:47:09.735Z,66.46
2019-02-07T04:50:06.031Z,66.26
2019-02-07T04:53:05.273Z,66.08
2019-02-07T04:55:56.143Z,66.16
2019-02-07T04:58:36.990Z,66.10
2019-02-07T05:01:27.959Z,65.95
2019-02-07T05:04:27.664Z,65.85
2019-02-07T05:07:05.945Z,65.82
2019-02-07T05:09:59.145Z,65.66
2019-02-07T05:12:48.387Z,65.49
2019-02-07T05:15:39.026Z,65.54
2019-02-07T05:18:27.948Z,65.45
2019-02-07T05:21:18.570Z,65.53
2019-02-07T05:24:26.966Z,65.46
2019-02-07T05:27:20.662Z,65.38
2019-02-07T05:30:10.519Z,65.19
2019-02-07T05:32:58.239Z,65.24
2019-02-07T05:35:58.088Z,65.12
2019-02-07T05:38:48.665Z,64.71
2019-02-07T05:41:33.826Z,64.83
2019-02-07T05:44:14.651Z,64.64
2019-02-07T05:47:03.549Z,64.80
2019-02-07T05:50:09.401Z,64.85
2019-02-07T05:52:52.622Z,64.96
2019-02-07T05:55:42.266Z,64.92
2019-02-07T05:58:38.356Z,64.77
2019-02-07T06:01:17.645Z,64.19
2019-02-07T06:04:01.414Z,64.22
2019-02-07T06:06:55.033Z,64.25
2019-02-07T06:09:49.067Z,64.09
2019-02-07T06:12:38.390Z,64.35
2019-02-07T06:15:37.604Z,64.23
2019-02-07T06:18:24.498Z,64.30
2019-02-07T06:21:15.154Z,64.50
2019-02-07T06:24:11.644Z,64.47
2019-02-07T06:26:54.319Z,64.22
2019-02-07T06:29:43.636Z,63.81
2019-02-07T06:32:36.845Z,64.05
2019-02-07T06:35:33.282Z,64.21
2019-02-07T06:38:15.712Z,63.98
2019-02-07T06:41:05.026Z,63.92
2019-02-07T06:43:54.223Z,63.72
2019-02-07T06:46:38.223Z,63.42
2019-02-07T06:49:35.129Z,63.10
2019-02-07T06:52:31.526Z,62.99
2019-02-07T06:55:20.367Z,62.69
2019-02-07T06:58:11.211Z,62.68
2019-02-07T07:01:13.983Z,62.38
2019-02-07T07:04:04.669Z,62.32
2019-02-07T07:06:53.981Z,61.98
2019-02-07T07:09:43.220Z,61.43
2019-02-07T07:12:33.531Z,61.22
2019-02-07T07:15:15.503Z,61.09
2019-02-07T07:18:06.434Z,60.80
2019-02-07T07:20:51.739Z,60.53
2019-02-07T07:25:59.922Z,59.92
2019-02-07T07:28:59.501Z,59.57
2019-02-07T07:32:05.599Z,59.04
2019-02-07T07:35:05.123Z,58.58
2019-02-07T07:37:55.543Z,58.30
2019-02-07T07:41:04.094Z,57.84
2019-02-07T07:43:57.616Z,57.18
2019-02-07T07:46:47.933Z,57.01
2019-02-07T07:49:32.142Z,56.61
2019-02-07T07:52:25.463Z,55.83
2019-02-07T07:55:28.389Z,55.69
2019-02-07T07:58:21.729Z,55.23
2019-02-07T08:01:18.086Z,54.92
2019-02-07T08:04:08.546Z,54.66
2019-02-07T08:07:11.057Z,53.97
2019-02-07T08:10:04.344Z,53.81
2019-02-07T08:12:59.795Z,53.31
2019-02-07T08:15:49.021Z,52.86
2019-02-07T08:18:48.469Z,52.65
2019-02-07T08:21:37.629Z,52.48
2019-02-07T08:24:24.773Z,52.08
2019-02-07T08:27:21.330Z,51.65
2019-02-07T08:30:10.661Z,51.70
2019-02-07T08:33:07.024Z,51.43
2019-02-07T08:36:06.564Z,50.77
2019-02-07T08:38:55.463Z,50.29
2019-02-07T08:41:36.567Z,49.78
2019-02-07T08:44:39.105Z,49.57
2019-02-07T08:47:20.508Z,49.04
2019-02-07T08:50:29.425Z,48.72
2019-02-07T08:53:31.822Z,48.40
2019-02-07T08:56:14.757Z,48.34
2019-02-07T08:59:03.844Z,48.25
2019-02-07T09:01:44.191Z,47.64
2019-02-07T09:04:34.514Z,47.65
2019-02-07T09:07:15.974Z,47.33
2019-02-07T09:10:04.776Z,47.32
2019-02-07T09:12:55.248Z,46.61
2019-02-07T09:15:49.230Z,46.64
2019-02-07T09:18:38.568Z,46.00
2019-02-07T09:21:27.935Z,45.13
2019-02-07T09:24:16.864Z,45.35
2019-02-07T09:27:02.702Z,45.19
2019-02-07T09:29:59.370Z,44.73
2019-02-07T09:32:49.628Z,44.47
2019-02-07T09:35:39.447Z,44.25
2019-02-07T09:38:36.544Z,44.04
2019-02-07T09:41:36.879Z,43.87
2019-02-07T09:44:26.096Z,42.98
2019-02-07T09:47:20.814Z,42.85
2019-02-07T09:50:18.109Z,42.76
2019-02-07T09:53:23.418Z,42.27
2019-02-07T09:55:57.600Z,41.93
2019-02-07T09:58:47.713Z,41.67
2019-02-07T10:01:26.791Z,41.03
2019-02-07T10:04:17.120Z,41.29
2019-02-07T10:07:16.332Z,41.31
2019-02-07T10:10:16.166Z,40.87
2019-02-07T10:13:06.597Z,40.50
2019-02-07T10:15:54.783Z,40.63
2019-02-07T10:18:43.783Z,40.54
2019-02-07T10:21:24.126Z,40.85
2019-02-07T10:24:23.816Z,40.52
2019-02-07T10:27:23.335Z,41.07
2019-02-07T10:30:25.814Z,41.36
2019-02-07T10:33:15.294Z,41.49
2019-02-07T10:36:08.854Z,41.70
2019-02-07T10:39:05.075Z,41.81
2019-02-07T10:41:55.463Z,42.27
2019-02-07T10:44:44.702Z,41.84
2019-02-07T10:47:33.603Z,41.91
2019-02-07T10:50:37.430Z,41.92
2019-02-07T10:53:33.570Z,41.67
2019-02-07T10:56:15.853Z,40.74
2019-02-07T10:59:06.272Z,40.01
2019-02-07T11:01:55.934Z,40.26
2019-02-07T11:04:46.283Z,40.20
2019-02-07T11:07:36.698Z,39.41
2019-02-07T11:10:29.099Z,39.51
2019-02-07T11:13:19.992Z,39.53
2019-02-07T11:16:09.368Z,39.08
2019-02-07T11:19:00.387Z,38.91
2019-02-07T11:21:53.616Z,38.69
2019-02-07T11:24:48.042Z,38.24
2019-02-07T11:27:37.068Z,38.27
2019-02-07T11:30:31.574Z,37.88
2019-02-07T11:33:33.909Z,37.59
2019-02-07T11:36:35.296Z,37.25
2019-02-07T11:39:29.788Z,36.77
2019-02-07T11:42:38.844Z,36.37
2019-02-07T11:45:31.004Z,36.41
2019-02-07T11:48:15.849Z,36.71
2019-02-07T11:50:55.905Z,36.62
2019-02-07T11:53:45.472Z,36.47
2019-02-07T11:56:25.952Z,36.62
2019-02-07T11:59:19.401Z,36.75
2019-02-07T12:02:09.783Z,36.34
2019-02-07T12:05:00.990Z,37.06
2019-02-07T12:08:07.386Z,37.09
2019-02-07T12:11:04.115Z,36.79
2019-02-07T12:13:54.540Z,36.61
2019-02-07T12:16:43.982Z,36.37
2019-02-07T12:19:31.547Z,36.20
2019-02-07T12:22:37.335Z,36.52
2019-02-07T12:25:26.763Z,36.12
2019-02-07T12:28:17.461Z,35.95
2019-02-07T12:31:19.867Z,35.77
2019-02-07T12:34:07.163Z,35.95
2019-02-07T12:37:05.495Z,35.86
2019-02-07T12:39:59.205Z,35.39
2019-02-07T12:42:48.157Z,35.92
2019-02-07T12:45:51.056Z,36.33
2019-02-07T12:48:40.172Z,36.52
2019-02-07T12:51:30.613Z,36.28
2019-02-07T12:54:19.547Z,35.68
2019-02-07T12:57:09.058Z,35.66
2019-02-07T13:00:05.573Z,35.24
2019-02-07T13:02:46.215Z,35.20
2019-02-07T13:05:36.256Z,34.29
2019-02-07T13:08:26.795Z,33.48
2019-02-07T13:11:15.760Z,31.46
2019-02-07T13:14:15.233Z,31.03
2019-02-07T13:17:14.779Z,32.00
2019-02-07T13:19:55.735Z,32.68
2019-02-07T13:22:47.086Z,32.94
2019-02-07T13:25:36.340Z,32.84
2019-02-07T13:28:25.505Z,32.73
2019-02-07T13:31:20.919Z,31.67
2019-02-07T13:34:21.369Z,30.82
2019-02-07T13:37:08.764Z,29.78
2019-02-07T13:40:10.325Z,28.34
2019-02-07T13:43:12.642Z,28.20
2019-02-07T13:45:55.355Z,28.28
2019-02-07T13:48:58.069Z,28.44
2019-02-07T13:52:00.192Z,29.25
2019-02-07T13:54:49.413Z,29.84
2019-02-07T13:57:49.453Z,29.56
2019-02-07T14:00:45.029Z,29.89
2019-02-07T14:03:28.580Z,30.49
2019-02-07T14:06:13.286Z,30.59
2019-02-07T14:09:15.686Z,30.79
2019-02-07T14:12:18.647Z,30.94
2019-02-07T14:15:06.977Z,30.49
2019-02-07T14:17:58.211Z,29.11
2019-02-07T14:20:48.674Z,27.69
2019-02-07T14:23:37.909Z,27.39
2019-02-07T14:26:32.662Z,27.48
2019-02-07T14:29:21.888Z,28.21
2019-02-07T14:32:12.819Z,28.16
2019-02-07T14:35:00.976Z,27.33
2019-02-07T14:38:04.046Z,25.97
2019-02-07T14:40:57.405Z,24.97
2019-02-07T14:43:41.670Z,25.11
2019-02-07T14:46:32.528Z,26.14
2019-02-07T14:49:04.280Z,28.19
2019-02-07T14:51:35.753Z,30.20
2019-02-07T14:54:07.344Z,32.08
2019-02-07T14:56:38.936Z,33.44
2019-02-07T14:59:10.533Z,34.54
2019-02-07T15:01:42.070Z,35.51
2019-02-07T15:04:13.691Z,36.36
2019-02-07T15:06:45.161Z,37.51
2019-02-07T15:09:20.074Z,38.33
2019-02-07T15:11:51.885Z,39.28
2019-02-07T15:14:23.644Z,40.06
2019-02-07T15:16:55.142Z,40.78
2019-02-07T15:19:26.883Z,41.29
2019-02-07T15:21:58.403Z,41.91
2019-02-07T15:24:30.200Z,42.38
2019-02-07T15:27:01.837Z,42.87
2019-02-07T15:29:33.721Z,43.29
2019-02-07T15:32:05.530Z,43.80
2019-02-07T15:34:37.077Z,44.24
2019-02-07T15:37:08.559Z,44.49
2019-02-07T15:39:40.329Z,44.89
2019-02-07T15:42:12.363Z,45.16
2019-02-07T15:44:44.134Z,45.43
2019-02-07T15:47:15.666Z,45.63
2019-02-07T15:49:48.244Z,45.85
2019-02-07T15:52:19.754Z,46.10
2019-02-07T15:54:51.308Z,46.27
2019-02-07T15:57:23.162Z,46.63
2019-02-07T15:59:58.113Z,46.89
2019-02-07T16:02:39.306Z,47.02
2019-02-07T16:05:13.474Z,47.33
2019-02-07T16:07:45.090Z,47.32
2019-02-07T16:10:18.176Z,47.63
2019-02-07T16:12:50.140Z,47.84
2019-02-07T16:15:21.794Z,48.09
2019-02-07T16:17:53.504Z,48.34
2019-02-07T16:20:25.477Z,48.72
2019-02-07T16:22:58.980Z,48.79
2019-02-07T16:25:30.765Z,49.04
2019-02-07T16:28:02.555Z,49.25
2019-02-07T16:30:34.584Z,49.27
2019-02-07T16:33:06.617Z,49.44
2019-02-07T16:35:38.405Z,49.39
2019-02-07T16:38:09.993Z,49.20
2019-02-07T16:40:41.785Z,49.33
2019-02-07T16:43:13.847Z,49.39
2019-02-07T16:45:46.052Z,49.34
2019-02-07T16:48:17.661Z,49.48
2019-02-07T16:50:59.673Z,49.49
2019-02-07T16:53:22.717Z,49.56
2019-02-07T16:55:54.414Z,49.75
2019-02-07T16:58:26.584Z,49.79
2019-02-07T17:00:58.544Z,49.56
2019-02-07T17:03:30.201Z,49.63
2019-02-07T17:06:01.959Z,50.11
2019-02-07T17:08:33.518Z,50.28
2019-02-07T17:11:05.491Z,50.18
2019-02-07T17:13:36.997Z,50.38
2019-02-07T17:16:08.810Z,50.29
2019-02-07T17:18:40.365Z,50.36
2019-02-07T17:21:12.914Z,50.76
2019-02-07T17:23:44.755Z,50.73
2019-02-07T17:26:16.520Z,50.59
2019-02-07T17:28:48.626Z,50.62
2019-02-07T17:31:20.442Z,50.75
2019-02-07T17:33:51.941Z,50.70
2019-02-07T17:36:23.638Z,50.65
2019-02-07T17:38:55.332Z,51.00
2019-02-07T17:41:27.165Z,50.91
2019-02-07T17:43:59.386Z,50.97
2019-02-07T17:46:31.277Z,51.11
2019-02-07T17:49:03.375Z,51.42
2019-02-07T17:51:35.063Z,51.28
2019-02-07T17:54:06.756Z,51.26
2019-02-07T17:56:38.515Z,51.34
2019-02-07T17:59:10.095Z,51.41
2019-02-07T18:01:42.173Z,51.36
2019-02-07T18:04:13.929Z,51.53
2019-02-07T18:06:45.838Z,51.61
2019-02-07T18:09:17.461Z,51.54
2019-02-07T18:11:49.095Z,51.56
2019-02-07T18:14:21.263Z,51.80
2019-02-07T18:16:52.990Z,51.76
2019-02-07T18:19:24.586Z,51.82
2019-02-07T18:21:57.326Z,51.78
2019-02-07T18:24:29.351Z,51.92
2019-02-07T18:27:01.735Z,51.87
2019-02-07T18:29:33.770Z,51.97
2019-02-07T18:32:05.877Z,51.96
2019-02-07T18:34:37.514Z,52.21
2019-02-07T18:37:09.671Z,52.29
2019-02-07T18:39:41.314Z,52.42
2019-02-07T18:42:13.132Z,52.36
2019-02-07T18:44:44.919Z,52.39
2019-02-07T18:47:16.917Z,52.58
2019-02-07T18:49:48.552Z,52.64
2019-02-07T18:52:20.753Z,52.73
2019-02-07T18:54:52.408Z,52.71
2019-02-07T18:57:24.417Z,52.75
2019-02-07T18:59:56.705Z,52.85
2019-02-07T19:02:28.506Z,52.77
2019-02-07T19:05:00.414Z,52.90
2019-02-07T19:07:32.337Z,52.94
2019-02-07T19:10:04.582Z,52.90
2019-02-07T19:12:36.658Z,53.01
2019-02-07T19:15:13.476Z,53.07
2019-02-07T19:17:45.332Z,53.24
2019-02-07T19:20:19.009Z,53.14
2019-02-07T19:22:50.858Z,53.31
2019-02-07T19:25:22.602Z,53.41
2019-02-07T19:27:54.690Z,53.50
2019-02-07T19:30:31.196Z,53.59
2019-02-07T19:33:03.179Z,53.57
2019-02-07T19:35:34.759Z,53.67
2019-02-07T19:38:06.958Z,53.74
2019-02-07T19:40:39.036Z,53.93
2019-02-07T19:43:10.910Z,53.96
2019-02-07T19:45:42.658Z,54.00
2019-02-07T19:48:14.312Z,54.12
2019-02-07T19:50:46.189Z,54.21
2019-02-07T19:53:17.743Z,54.14
